Time;durP1;ratioP1;P1;durP2;ratioP2;P2;SDS_P1;SDS_P2;PMS_P1;PMS_P2;Temp;Humidity;BMP_temperature;BMP_pressure;BME280_temperature;BME280_humidity;BME280_pressure;Samples;Min_cycle;Max_cycle;Signal;HPM_P1;HPM_P2
2023/06/07 00:02:20;;;;;;;4.80;3.43;;;;;;;-144.30;76.88;85289.09;5110396;28;20687;-57
2023/06/07 00:04:48;;;;;;;6.40;3.30;;;;;;;-144.30;77.53;85306.97;5110069;28;20595;-57
2023/06/07 00:07:18;;;;;;;4.73;3.27;;;;;;;-144.30;77.99;85348.72;5110017;28;20627;-51
2023/06/07 00:09:45;;;;;;;6.50;3.73;;;;;;;-144.30;78.73;85306.97;5109931;28;20198;-50
2023/06/07 00:12:12;;;;;;;5.33;3.40;;;;;;;-144.30;78.97;85299.03;5110138;28;20210;-52
2023/06/07 00:14:39;;;;;;;4.83;3.83;;;;;;;-144.30;79.86;85644.94;5110028;28;20281;-49
2023/06/07 00:17:08;;;;;;;3.80;3.50;;;;;;;-144.30;80.39;85310.94;5109942;28;20214;-56
2023/06/07 00:19:35;;;;;;;5.23;4.00;;;;;;;-144.30;81.14;85364.63;5109900;28;20206;-56
2023/06/07 00:22:03;;;;;;;8.30;3.97;;;;;;;-144.30;81.66;85320.91;5110115;28;20550;-56
2023/06/07 00:24:31;;;;;;;4.43;3.53;;;;;;;-144.30;81.86;85322.88;5109912;28;20644;-57
2023/06/07 00:26:58;;;;;;;7.27;3.70;;;;;;;-144.30;82.14;85358.66;5109942;28;20665;-57
2023/06/07 00:29:25;;;;;;;3.60;3.30;;;;;;;-144.30;81.90;85342.75;5109831;28;20205;-48
2023/06/07 00:31:51;;;;;;;4.70;3.67;;;;;;;-144.30;82.16;85293.06;5109878;28;20229;-50
2023/06/07 00:34:18;;;;;;;4.20;3.50;;;;;;;-144.30;82.32;85336.78;5109915;28;20660;-49
2023/06/07 00:36:47;;;;;;;4.57;3.80;;;;;;;-144.30;82.86;85332.81;5125883;28;20607;-57
2023/06/07 00:39:14;;;;;;;3.63;3.33;;;;;;;-144.30;83.66;85332.81;5130308;27;20194;-50
2023/06/07 00:41:42;;;;;;;8.10;3.57;;;;;;;-144.30;83.71;85336.78;5130311;27;20281;-57
2023/06/07 00:44:11;;;;;;;4.07;3.60;;;;;;;-144.30;84.09;85299.03;5130017;27;20309;-51
2023/06/07 00:46:39;;;;;;;8.03;4.43;;;;;;;-144.30;84.57;85344.75;5130348;27;20753;-56
2023/06/07 00:49:06;;;;;;;4.00;3.57;;;;;;;-144.30;84.58;85332.81;5133949;27;20638;-49
2023/06/07 00:51:33;;;;;;;4.03;3.73;;;;;;;-144.30;85.40;85354.69;5133920;27;20198;-56
2023/06/07 00:54:02;;;;;;;7.40;3.80;;;;;;;-144.30;86.15;85360.66;5134002;27;20573;-49
2023/06/07 00:56:29;;;;;;;4.90;3.93;;;;;;;-144.30;86.58;85350.72;5133864;27;20197;-49
2023/06/07 00:58:58;;;;;;;8.53;4.10;;;;;;;-144.30;86.37;85332.81;5133743;27;20197;-48
2023/06/07 01:01:27;;;;;;;4.57;4.10;;;;;;;-144.30;87.09;85320.91;5133464;27;20225;-56
2023/06/07 01:03:54;;;;;;;4.87;4.50;;;;;;;-144.30;88.01;85368.59;5133435;27;20213;-57
2023/06/07 01:06:22;;;;;;;11.20;4.97;;;;;;;-144.30;89.11;85372.56;5133832;27;20197;-56
2023/06/07 01:08:50;;;;;;;4.60;4.20;;;;;;;-144.30;89.18;85356.69;5133702;27;20237;-56
2023/06/07 01:11:17;;;;;;;11.23;4.73;;;;;;;-144.30;89.35;85374.56;5133417;27;20193;-57
2023/06/07 01:13:44;;;;;;;6.00;4.00;;;;;;;-144.30;89.67;85434.22;5133450;27;20235;-49
2023/06/07 01:16:13;;;;;;;8.97;4.67;;;;;;;-144.30;89.62;85336.78;5133791;27;20194;-49
2023/06/07 01:18:42;;;;;;;8.83;5.07;;;;;;;-144.30;89.35;85372.56;5133119;27;20198;-49
2023/06/07 01:21:13;;;;;;;7.77;4.93;;;;;;;-144.30;89.61;85328.84;5133527;27;20209;-49
2023/06/07 01:23:42;;;;;;;12.30;4.67;;;;;;;-144.30;89.76;85380.53;5133162;27;20588;-50
2023/06/07 01:26:09;;;;;;;7.80;4.50;;;;;;;-144.30;90.29;85344.75;5133438;27;20254;-51
2023/06/07 01:28:41;;;;;;;5.17;4.67;;;;;;;-144.30;90.61;85402.41;5133231;27;20222;-51
2023/06/07 01:31:09;;;;;;;5.33;4.90;;;;;;;-144.30;90.73;85352.69;5133455;27;20281;-57
2023/06/07 01:33:37;;;;;;;6.03;4.87;;;;;;;-144.30;90.94;85376.56;5133194;27;20194;-50
2023/06/07 01:36:06;;;;;;;7.77;5.10;;;;;;;-144.30;92.12;85384.50;5133090;27;20198;-50
2023/06/07 01:38:34;;;;;;;7.90;5.80;;;;;;;-144.30;92.18;85384.50;5133008;27;20200;-56
2023/06/07 01:41:03;;;;;;;6.20;5.33;;;;;;;-144.30;92.79;85400.41;5132950;27;20284;-49
2023/06/07 01:43:31;;;;;;;6.80;4.90;;;;;;;-144.30;93.27;85396.44;5132686;27;20200;-49
2023/06/07 01:45:59;;;;;;;6.43;5.10;;;;;;;-144.30;93.21;85366.63;5132899;27;20202;-50
2023/06/07 01:48:27;;;;;;;5.70;5.07;;;;;;;-144.30;93.71;85823.88;5132920;27;20254;-55
2023/06/07 01:50:54;;;;;;;5.53;4.97;;;;;;;-144.30;93.74;85366.63;5132864;27;20675;-57
2023/06/07 01:53:21;;;;;;;5.80;5.30;;;;;;;-144.30;94.17;85408.34;5132720;27;20575;-56
2023/06/07 01:55:58;;;;;;;7.37;5.10;;;;;;;-144.30;94.48;85380.53;5132484;27;20573;-56
2023/06/07 01:58:35;;;;;;;13.13;5.80;;;;;;;-144.30;94.94;85410.34;5132434;27;20205;-50
2023/06/07 02:01:10;;;;;;;6.00;5.40;;;;;;;-144.30;95.01;85332.81;5132765;27;20202;-57
2023/06/07 02:03:42;;;;;;;9.03;5.80;;;;;;;-144.30;95.25;85366.63;5132789;27;20198;-56
2023/06/07 02:06:13;;;;;;;12.37;6.90;;;;;;;-144.30;95.36;85402.41;5132485;27;20198;-50
2023/06/07 02:08:47;;;;;;;11.30;7.43;;;;;;;-144.30;95.57;85380.53;5132616;27;20194;-56
2023/06/07 02:11:16;;;;;;;16.80;8.10;;;;;;;-144.30;95.72;85404.38;5132263;27;20204;-49
2023/06/07 02:13:45;;;;;;;14.87;7.30;;;;;;;-144.30;96.31;85414.31;5132162;27;20205;-49
2023/06/07 02:16:12;;;;;;;10.83;7.60;;;;;;;-144.30;96.60;85360.66;5132229;27;20198;-49
2023/06/07 02:18:40;;;;;;;11.20;7.90;;;;;;;-144.30;97.92;85398.41;5132054;27;20200;-50
2023/06/07 02:21:07;;;;;;;9.47;8.33;;;;;;;-144.30;98.91;85396.44;5132155;27;20288;-51
2023/06/07 02:23:34;;;;;;;12.33;9.07;;;;;;;-144.30;99.45;85400.41;5132240;27;20190;-50
2023/06/07 02:26:01;;;;;;;10.47;9.40;;;;;;;-144.30;99.86;85450.09;5131989;27;20229;-57
2023/06/07 02:28:28;;;;;;;15.73;9.67;;;;;;;-144.30;100.00;85418.31;5131936;27;20194;-57
2023/06/07 02:30:57;;;;;;;15.60;10.27;;;;;;;-144.30;100.00;85404.38;5131952;27;20201;-50
2023/06/07 02:33:25;;;;;;;12.37;9.57;;;;;;;-144.30;100.00;85386.50;5131724;27;20190;-49
2023/06/07 02:35:52;;;;;;;16.27;9.77;;;;;;;-144.30;100.00;85390.47;5132048;27;20195;-49
2023/06/07 02:38:19;;;;;;;14.20;10.23;;;;;;;-144.30;100.00;85380.53;5131886;27;20584;-50
2023/06/07 02:40:46;;;;;;;15.50;10.17;;;;;;;-144.30;100.00;85450.09;5132033;27;20216;-50
2023/06/07 02:43:14;;;;;;;13.37;8.83;;;;;;;-144.30;100.00;85436.19;5131929;27;20697;-50
2023/06/07 02:45:41;;;;;;;19.63;11.33;;;;;;;-144.30;100.00;85436.19;5131704;27;20233;-56
2023/06/07 02:48:09;;;;;;;12.60;9.87;;;;;;;-144.30;100.00;85436.19;5131365;27;20238;-58
2023/06/07 02:50:36;;;;;;;14.03;10.90;;;;;;;-144.30;100.00;85432.22;5131606;27;20197;-57
2023/06/07 02:53:05;;;;;;;17.87;10.70;;;;;;;-144.30;100.00;85426.25;5131696;27;20583;-57
2023/06/07 02:55:32;;;;;;;15.23;12.10;;;;;;;-144.30;100.00;85448.13;5131297;27;20592;-49
2023/06/07 02:57:59;;;;;;;17.33;10.90;;;;;;;-144.30;100.00;85454.09;5131521;27;20689;-50
2023/06/07 03:00:27;;;;;;;19.60;11.93;;;;;;;-144.30;100.00;85428.25;5123692;27;20610;-49
2023/06/07 03:02:54;;;;;;;17.70;11.77;;;;;;;-144.30;100.00;85436.19;5115663;27;20702;-50
2023/06/07 03:05:22;;;;;;;18.07;12.47;;;;;;;-144.30;100.00;85438.19;5125272;27;20224;-50
2023/06/07 03:07:50;;;;;;;20.23;13.00;;;;;;;-144.30;100.00;85416.31;5127266;27;20687;-49
2023/06/07 03:10:17;;;;;;;23.87;13.23;;;;;;;-144.30;100.00;85424.25;5129391;27;20702;-50
2023/06/07 03:12:44;;;;;;;20.90;13.70;;;;;;;-144.30;100.00;85460.03;5130615;27;20190;-48
2023/06/07 03:15:11;;;;;;;22.20;13.30;;;;;;;-144.30;100.00;85438.19;5130736;27;20698;-49
2023/06/07 03:17:38;;;;;;;25.23;14.33;;;;;;;-144.30;100.00;85444.16;5128960;27;20694;-51
2023/06/07 03:20:08;;;;;;;22.53;13.97;;;;;;;-144.30;100.00;85466.00;5125794;27;20190;-50
2023/06/07 03:22:37;;;;;;;19.67;13.90;;;;;;;-144.30;100.00;85452.09;5128508;27;20197;-49
2023/06/07 03:25:04;;;;;;;27.73;16.83;;;;;;;-144.30;100.00;85414.31;5129580;27;20271;-57
2023/06/07 03:27:32;;;;;;;26.03;15.03;;;;;;;-144.30;100.00;85448.13;5129339;27;20225;-57
2023/06/07 03:29:59;;;;;;;25.07;15.10;;;;;;;-144.30;100.00;85444.16;5129647;27;20194;-56
2023/06/07 03:32:26;;;;;;;24.83;15.03;;;;;;;-144.30;100.00;85406.38;5127258;27;20275;-57
2023/06/07 03:34:53;;;;;;;22.43;14.73;;;;;;;-144.30;100.00;85384.50;5129786;27;20186;-57
2023/06/07 03:37:20;;;;;;;30.83;15.80;;;;;;;-144.30;100.00;85364.63;5130055;27;20601;-50
2023/06/07 03:39:48;;;;;;;27.73;15.90;;;;;;;-144.30;100.00;85376.56;5129547;27;20685;-50
2023/06/07 03:42:15;;;;;;;24.67;14.87;;;;;;;-144.30;100.00;85400.41;5129906;27;20204;-49
2023/06/07 03:44:42;;;;;;;23.03;14.37;;;;;;;-144.30;100.00;85380.53;5129570;28;20210;-51
2023/06/07 03:47:10;;;;;;;29.50;15.47;;;;;;;-144.30;99.77;85336.78;5130223;27;20222;-51
2023/06/07 03:49:37;;;;;;;26.10;15.33;;;;;;;-144.30;99.37;85308.97;5130159;28;20212;-49
2023/06/07 03:52:04;;;;;;;23.50;14.57;;;;;;;-144.30;98.02;85279.16;5130599;27;20192;-51
2023/06/07 03:54:31;;;;;;;23.67;15.40;;;;;;;-144.30;96.86;85193.66;5130314;28;20193;-48
2023/06/07 03:56:59;;;;;;;22.23;13.37;;;;;;;-144.30;93.63;85181.75;5130726;27;20194;-49
2023/06/07 03:59:26;;;;;;;22.70;14.07;;;;;;;-144.30;91.62;85060.50;5129389;27;20194;-50
2023/06/07 04:01:54;;;;;;;19.98;12.57;;;;;;;-144.30;90.10;85018.75;5130752;27;20663;-50
2023/06/07 04:04:20;;;;;;;36.55;15.68;;;;;;;-144.30;86.25;84927.31;5124685;27;20214;-52
2023/06/07 04:06:48;;;;;;;20.15;12.90;;;;;;;-144.30;82.46;84816.00;5130018;27;20710;-49
2023/06/07 04:09:18;;;;;;;18.13;12.50;;;;;;;-144.30;80.23;84738.47;5117100;27;20294;-58
2023/06/07 04:11:45;;;;;;;24.45;13.05;;;;;;;-144.30;77.18;84680.84;5128606;28;20595;-57
2023/06/07 04:14:13;;;;;;;17.55;12.00;;;;;;;-144.30;75.12;84563.59;5129365;27;20221;-57
2023/06/07 04:16:40;;;;;;;15.68;11.68;;;;;;;-144.30;74.23;84543.72;5129435;28;20313;-57
2023/06/07 04:19:07;;;;;;;17.92;13.00;;;;;;;-144.30;72.46;84414.53;5129728;27;20615;-57
2023/06/07 04:21:34;;;;;;;19.83;11.52;;;;;;;-144.30;69.58;84299.25;5130322;27;20220;-57
2023/06/07 04:24:03;;;;;;;15.23;11.95;;;;;;;-144.30;67.40;84189.97;5133734;27;20275;-57
2023/06/07 04:26:31;;;;;;;15.20;11.20;;;;;;;-144.30;65.71;84132.34;5131620;27;20242;-57
2023/06/07 04:28:58;;;;;;;15.10;11.60;;;;;;;-144.30;61.71;84068.75;5134030;27;20233;-50
2023/06/07 04:31:29;;;;;;;20.40;11.88;;;;;;;-144.30;58.92;84013.09;5133629;27;20197;-50
2023/06/07 04:33:57;;;;;;;12.23;11.02;;;;;;;-144.30;55.99;83784.59;5134528;27;20601;-51
2023/06/07 04:36:25;;;;;;;18.27;12.48;;;;;;;-144.30;54.17;83719.03;5133886;27;20190;-50
2023/06/07 04:38:52;;;;;;;14.85;11.45;;;;;;;-144.30;53.53;83703.13;5134051;27;20254;-49
2023/06/07 04:41:19;;;;;;;18.05;11.05;;;;;;;-144.30;53.00;83663.38;5134118;27;20250;-50
2023/06/07 04:43:48;;;;;;;13.18;11.35;;;;;;;-144.30;52.90;83736.91;5134075;27;20194;-56
2023/06/07 04:46:15;;;;;;;13.25;10.73;;;;;;;-144.30;53.79;83786.56;5133896;27;20218;-56
2023/06/07 04:48:44;;;;;;;12.50;11.30;;;;;;;-144.30;53.23;83788.56;5133705;27;20194;-56
2023/06/07 04:51:13;;;;;;;14.10;10.55;;;;;;;-144.30;54.83;83909.78;5133820;27;20201;-57
2023/06/07 04:53:41;;;;;;;13.27;11.30;;;;;;;-144.30;55.07;83877.97;5134055;27;20632;-57
2023/06/07 04:56:09;;;;;;;10.60;9.52;;;;;;;-144.30;56.12;84080.66;5134015;27;20702;-57
2023/06/07 04:58:39;;;;;;;16.40;10.75;;;;;;;-144.30;58.59;84227.72;5133612;27;20197;-57
2023/06/07 05:01:07;;;;;;;16.58;11.73;;;;;;;-144.30;61.05;84356.91;5133740;27;20686;-57
2023/06/07 05:03:36;;;;;;;12.85;11.07;;;;;;;-144.30;61.56;84273.44;5133412;27;20799;-57
2023/06/07 05:06:05;;;;;;;15.05;11.25;;;;;;;-144.30;58.50;84088.63;5133323;27;20218;-56
2023/06/07 05:08:31;;;;;;;18.70;11.15;;;;;;;-144.30;56.70;84072.72;5112443;27;20222;-50
2023/06/07 05:10:58;;;;;;;15.27;10.45;;;;;;;-144.30;58.69;84249.59;5112353;28;20309;-56
2023/06/07 05:13:25;;;;;;;12.48;11.00;;;;;;;-144.30;59.97;84301.25;5111863;27;20226;-56
2023/06/07 05:15:54;;;;;;;12.93;11.38;;;;;;;-144.30;61.44;84416.50;5112289;28;20223;-49
2023/06/07 05:18:21;;;;;;;12.60;10.20;;;;;;;-144.30;63.82;84478.13;5112284;27;20313;-49
2023/06/07 05:20:48;;;;;;;12.52;9.55;;;;;;;-144.30;62.88;84339.00;5129387;27;20198;-48
2023/06/07 05:23:17;;;;;;;15.10;10.02;;;;;;;-144.30;61.20;84134.31;5132931;27;20249;-49
2023/06/07 05:25:44;;;;;;;10.40;9.35;;;;;;;-144.30;59.66;84231.69;5132563;27;20846;-57
2023/06/07 05:28:11;;;;;;;13.38;9.52;;;;;;;-144.30;59.97;84317.16;5132876;27;20266;-56
2023/06/07 05:30:38;;;;;;;15.00;9.35;;;;;;;-144.30;61.62;84358.88;5132612;27;20193;-57
2023/06/07 05:33:06;;;;;;;13.50;9.20;;;;;;;-144.30;61.01;84366.84;5132245;27;20201;-57
2023/06/07 05:35:33;;;;;;;13.07;10.63;;;;;;;-144.30;61.28;84390.69;5132577;27;20582;-57
2023/06/07 05:38:00;;;;;;;11.07;9.98;;;;;;;-144.30;62.37;84362.84;5132351;27;20229;-50
2023/06/07 05:40:29;;;;;;;11.68;9.52;;;;;;;-144.30;60.84;84253.56;5132609;27;20258;-50
2023/06/07 05:42:56;;;;;;;9.52;8.63;;;;;;;-144.30;58.34;84187.97;5132381;27;20198;-51
2023/06/07 05:45:23;;;;;;;12.20;9.00;;;;;;;-144.30;56.81;84152.22;5132716;27;20221;-50
2023/06/07 05:47:50;;;;;;;10.27;9.27;;;;;;;-144.30;57.72;84213.81;5132469;27;20244;-56
2023/06/07 05:50:19;;;;;;;12.10;9.20;;;;;;;-144.30;57.96;84124.38;5132683;27;20197;-57
2023/06/07 05:52:46;;;;;;;10.77;9.10;;;;;;;-144.30;55.74;83917.72;5120831;27;20222;-56
2023/06/07 05:55:13;;;;;;;9.50;8.68;;;;;;;-144.30;53.72;83846.19;5111075;28;20966;-56
2023/06/07 05:57:41;;;;;;;12.05;8.88;;;;;;;-144.30;55.76;84013.09;5123693;27;20754;-51
2023/06/07 06:00:11;;;;;;;10.75;9.13;;;;;;;-144.30;55.28;83997.22;5131652;27;20214;-49
2023/06/07 06:02:38;;;;;;;12.90;8.70;;;;;;;-144.30;56.51;84172.06;5128879;27;20245;-50
2023/06/07 06:05:07;;;;;;;9.82;8.93;;;;;;;-144.30;57.35;84223.75;5131279;27;20217;-57
2023/06/07 06:07:34;;;;;;;9.27;8.25;;;;;;;-144.30;57.55;84150.22;5128485;27;20218;-50
2023/06/07 06:10:02;;;;;;;14.80;9.55;;;;;;;-144.30;58.02;84247.59;5131347;27;20217;-50
2023/06/07 06:12:29;;;;;;;16.38;9.90;;;;;;;-144.30;58.15;84261.50;5127204;27;20298;-51
2023/06/07 06:14:58;;;;;;;10.32;9.40;;;;;;;-144.30;59.72;84360.88;5129092;27;20236;-50
2023/06/07 06:17:25;;;;;;;10.52;8.82;;;;;;;-144.30;61.06;84505.94;5130803;27;20218;-50
2023/06/07 06:19:52;;;;;;;15.20;11.60;;;;;;;-144.30;62.78;84555.63;5131652;27;20282;-50
2023/06/07 06:22:18;;;;;;;12.07;10.82;;;;;;;-144.30;63.17;84545.69;5129254;27;20281;-50
2023/06/07 06:24:45;;;;;;;9.85;9.00;;;;;;;-144.30;63.78;84579.50;5131350;27;20190;-50
2023/06/07 06:27:12;;;;;;;11.23;9.15;;;;;;;-144.30;65.05;84657.00;5131656;27;20228;-51
2023/06/07 06:29:39;;;;;;;15.57;9.73;;;;;;;-144.30;65.80;84617.25;5128614;27;20193;-49
2023/06/07 06:32:09;;;;;;;10.45;8.90;;;;;;;-144.30;66.77;85066.44;5131373;27;20194;-50
2023/06/07 06:34:36;;;;;;;11.20;9.38;;;;;;;-144.30;65.88;84585.44;5131580;27;20190;-57
2023/06/07 06:37:04;;;;;;;15.20;9.07;;;;;;;-144.30;63.01;84470.19;5132081;27;20571;-56
2023/06/07 06:39:31;;;;;;;9.82;8.93;;;;;;;-144.30;61.08;84444.34;5127408;27;20660;-51
2023/06/07 06:41:58;;;;;;;10.35;8.45;;;;;;;-144.30;61.33;84486.06;5110727;28;20322;-51
2023/06/07 06:44:25;;;;;;;12.82;8.93;;;;;;;-144.30;61.28;84519.88;5113073;27;20233;-50
2023/06/07 06:46:52;;;;;;;11.65;8.38;;;;;;;-144.30;62.55;84533.78;5132539;27;20257;-49
2023/06/07 06:49:20;;;;;;;14.68;9.18;;;;;;;-144.30;63.52;84549.69;5110152;28;20218;-51
2023/06/07 06:51:47;;;;;;;9.25;8.43;;;;;;;-144.30;64.40;84615.25;5110104;27;20228;-50
2023/06/07 06:54:14;;;;;;;11.20;9.15;;;;;;;-144.30;65.93;84678.84;5111861;27;20225;-51
2023/06/07 06:56:41;;;;;;;13.75;9.02;;;;;;;-144.30;66.25;84708.66;5130248;27;20306;-56
2023/06/07 06:59:08;;;;;;;10.18;9.05;;;;;;;-144.30;67.55;84724.56;5131247;27;20221;-56
2023/06/07 07:01:45;;;;;;;13.45;8.95;;;;;;;-144.30;67.32;84696.75;5130903;27;20698;-50
2023/06/07 07:04:13;;;;;;;14.05;10.00;;;;;;;-144.30;67.09;84617.25;5130163;27;20293;-50
2023/06/07 07:06:41;;;;;;;12.63;9.20;;;;;;;-144.30;66.54;84676.88;5130524;27;20230;-51
2023/06/07 07:09:09;;;;;;;12.75;8.50;;;;;;;-144.30;66.24;84627.19;5130864;27;20221;-50
2023/06/07 07:11:36;;;;;;;11.55;9.00;;;;;;;-144.30;66.06;84653.03;5130257;27;20209;-51
2023/06/07 07:14:03;;;;;;;13.35;9.88;;;;;;;-144.30;65.94;84672.91;5131171;27;20209;-50
2023/06/07 07:16:30;;;;;;;11.52;9.95;;;;;;;-144.30;64.66;84623.22;5131497;27;20194;-51
2023/06/07 07:18:57;;;;;;;11.27;10.02;;;;;;;-144.30;64.69;84525.81;5131096;27;20562;-51
2023/06/07 07:21:24;;;;;;;11.25;10.25;;;;;;;-144.30;62.39;84478.13;5131322;27;20205;-51
2023/06/07 07:23:53;;;;;;;12.07;9.85;;;;;;;-144.30;62.63;84517.88;5131107;27;20209;-50
2023/06/07 07:26:20;;;;;;;19.05;9.82;;;;;;;-144.30;63.08;84541.72;5131013;27;20706;-51
2023/06/07 07:28:47;;;;;;;13.27;10.25;;;;;;;-144.30;62.71;84525.81;5130701;27;20198;-56
2023/06/07 07:31:14;;;;;;;12.25;9.82;;;;;;;-144.30;62.00;84500.00;5130638;27;20686;-57
2023/06/07 07:33:41;;;;;;;12.80;9.48;;;;;;;-144.30;61.47;84422.47;5130681;27;20206;-56
2023/06/07 07:36:09;;;;;;;11.52;9.68;;;;;;;-144.30;60.14;84360.88;5131032;27;20197;-56
2023/06/07 07:38:37;;;;;;;14.15;10.13;;;;;;;-144.30;58.73;84297.28;5130783;27;20671;-57
2023/06/07 07:41:06;;;;;;;8.65;8.05;;;;;;;-144.30;57.24;84255.53;5130818;27;20626;-56
2023/06/07 07:43:33;;;;;;;12.10;8.85;;;;;;;-144.30;58.00;84293.31;5130516;27;20197;-57
2023/06/07 07:46:00;;;;;;;13.10;8.68;;;;;;;-144.30;57.38;84132.34;5130402;27;20221;-56
2023/06/07 07:48:27;;;;;;;9.73;8.70;;;;;;;-144.30;56.09;84213.81;5130727;27;20204;-50
2023/06/07 07:50:54;;;;;;;9.48;8.57;;;;;;;-144.30;55.95;84166.13;5130682;27;20198;-51
2023/06/07 07:53:21;;;;;;;9.60;8.75;;;;;;;-144.30;55.20;84044.91;5130726;27;20640;-51
2023/06/07 07:55:48;;;;;;;8.05;7.40;;;;;;;-144.30;55.02;84094.56;5131567;27;20222;-56
2023/06/07 07:58:16;;;;;;;8.90;6.93;;;;;;;-144.30;54.01;84023.03;5134907;27;20190;-57
2023/06/07 08:00:43;;;;;;;6.88;6.28;;;;;;;-144.30;53.20;84009.13;5134662;27;20208;-57
2023/06/07 08:03:10;;;;;;;7.80;7.13;;;;;;;-144.30;52.71;83921.69;5134827;27;20194;-57
2023/06/07 08:05:37;;;;;;;11.40;8.18;;;;;;;-144.30;54.04;84108.50;5134755;27;20193;-57
2023/06/07 08:08:05;;;;;;;8.18;7.45;;;;;;;-144.30;54.24;84040.91;5134779;27;20194;-52
2023/06/07 08:10:32;;;;;;;8.23;7.53;;;;;;;-144.30;54.14;84082.66;5134617;27;20208;-51
2023/06/07 08:12:58;;;;;;;8.23;7.68;;;;;;;-144.30;54.11;84034.97;5134578;27;20605;-51
2023/06/07 08:15:27;;;;;;;8.48;7.72;;;;;;;-144.30;53.43;83929.66;5134456;27;20571;-57
2023/06/07 08:17:54;;;;;;;8.32;7.57;;;;;;;-144.30;52.64;83866.06;5133054;27;20190;-57
2023/06/07 08:20:21;;;;;;;7.20;6.70;;;;;;;-144.30;52.54;83870.03;5127336;27;20208;-51
2023/06/07 08:22:50;;;;;;;8.00;6.78;;;;;;;-144.30;53.95;84001.19;5121712;27;20189;-51
2023/06/07 08:25:17;;;;;;;7.43;6.82;;;;;;;-144.30;54.18;84076.69;5129268;27;20240;-57
2023/06/07 08:27:44;;;;;;;11.18;7.43;;;;;;;-144.30;54.64;84044.91;5133141;27;20293;-50
2023/06/07 08:30:12;;;;;;;11.60;6.90;;;;;;;-144.30;54.15;83963.44;5133803;27;20190;-51
2023/06/07 08:32:41;;;;;;;9.52;7.03;;;;;;;-144.30;53.93;83975.34;5133643;27;20194;-51
2023/06/07 08:35:11;;;;;;;7.75;6.95;;;;;;;-144.30;53.25;83913.75;5131438;27;20246;-57
2023/06/07 08:37:38;;;;;;;8.35;7.45;;;;;;;-144.30;53.09;83985.28;5133696;27;20208;-57
2023/06/07 08:40:06;;;;;;;9.02;7.18;;;;;;;-144.30;53.48;83933.63;5133516;27;20630;-57
2023/06/07 08:42:33;;;;;;;8.10;6.70;;;;;;;-144.30;53.92;84013.09;5133758;27;20210;-57
2023/06/07 08:45:00;;;;;;;9.60;6.97;;;;;;;-144.30;54.01;84031.00;5131611;27;20472;-57
2023/06/07 08:47:29;;;;;;;7.60;6.90;;;;;;;-144.30;53.76;83967.41;5132502;27;20225;-57
2023/06/07 08:49:58;;;;;;;8.00;7.20;;;;;;;-144.30;52.89;83961.44;5132813;27;20190;-57
2023/06/07 08:52:25;;;;;;;8.32;7.55;;;;;;;-144.30;52.63;83981.31;5133281;27;20201;-57
2023/06/07 08:54:55;;;;;;;7.70;6.97;;;;;;;-144.30;53.05;83975.34;5133032;27;20193;-58
2023/06/07 08:57:23;;;;;;;7.55;6.68;;;;;;;-144.30;53.17;83977.34;5126866;27;20210;-50
2023/06/07 08:59:50;;;;;;;7.82;6.80;;;;;;;-144.30;52.57;83985.28;5132526;27;20612;-56
2023/06/07 09:02:19;;;;;;;7.10;6.57;;;;;;;-144.30;53.86;84060.78;5132057;27;20204;-50
2023/06/07 09:04:47;;;;;;;6.82;6.32;;;;;;;-144.30;53.70;84048.88;5132360;27;20667;-50
2023/06/07 09:07:15;;;;;;;7.50;6.80;;;;;;;-144.30;52.99;84009.13;5131924;27;20224;-51
2023/06/07 09:09:44;;;;;;;7.90;7.03;;;;;;;-144.30;52.25;83901.81;5133183;27;20198;-51
2023/06/07 09:12:11;;;;;;;7.50;6.57;;;;;;;-144.30;51.29;83935.59;5133259;27;20197;-52
2023/06/07 09:14:38;;;;;;;10.23;6.10;;;;;;;-144.30;50.36;83862.09;5130220;27;20582;-51
2023/06/07 09:17:05;;;;;;;6.63;6.03;;;;;;;-144.30;50.51;83796.50;5132995;27;20190;-57
2023/06/07 09:19:36;;;;;;;6.43;5.85;;;;;;;-144.30;50.06;83719.03;5132966;27;20208;-51
2023/06/07 09:22:03;;;;;;;7.57;6.55;;;;;;;-144.30;49.65;83691.19;5133314;27;20275;-51
2023/06/07 09:24:33;;;;;;;6.78;6.13;;;;;;;-144.30;49.46;83738.88;5133225;27;20198;-51
2023/06/07 09:27:00;;;;;;;6.50;6.10;;;;;;;-144.30;49.06;83665.38;5133218;27;20217;-52
2023/06/07 09:29:29;;;;;;;6.47;6.00;;;;;;;-144.30;48.40;83631.59;5133316;27;20583;-51
2023/06/07 09:31:57;;;;;;;7.97;6.05;;;;;;;-144.30;47.47;83669.34;5133081;27;20202;-52
2023/06/07 09:34:25;;;;;;;7.30;5.72;;;;;;;-144.30;47.52;83681.28;5132936;27;20198;-51
2023/06/07 09:36:53;;;;;;;7.25;5.45;;;;;;;-144.30;48.07;83774.66;5132899;27;20247;-56
2023/06/07 09:39:22;;;;;;;9.77;6.00;;;;;;;-144.30;48.12;83723.00;5133110;27;20243;-56
2023/06/07 09:41:51;;;;;;;8.50;5.68;;;;;;;-144.30;48.46;83723.00;5132862;27;20289;-56
2023/06/07 09:44:26;;;;;;;6.20;5.50;;;;;;;-144.30;48.50;83681.28;5132894;27;20197;-56
2023/06/07 09:46:53;;;;;;;10.25;6.43;;;;;;;-144.30;48.81;83732.94;5132356;27;20229;-56
2023/06/07 09:49:24;;;;;;;5.85;5.45;;;;;;;-144.30;48.50;83719.03;5133050;27;20198;-56
2023/06/07 09:51:53;;;;;;;6.10;5.55;;;;;;;-144.30;48.18;83728.97;5132681;27;20194;-57
2023/06/07 09:54:36;;;;;;;7.03;5.95;;;;;;;-144.30;48.03;83719.03;5132690;27;20278;-56
2023/06/07 09:57:07;;;;;;;5.53;5.07;;;;;;;-144.30;47.97;83719.03;5132532;27;20190;-56
2023/06/07 09:59:35;;;;;;;7.20;5.63;;;;;;;-144.30;47.20;83667.34;5129284;27;20890;-51
2023/06/07 10:02:02;;;;;;;6.80;5.00;;;;;;;-144.30;46.99;83715.03;5111712;28;20275;-51
2023/06/07 10:04:31;;;;;;;7.43;5.25;;;;;;;-144.30;46.69;83671.34;5110703;27;20215;-50
2023/06/07 10:07:00;;;;;;;5.70;5.28;;;;;;;-144.30;47.64;83681.28;5111413;28;20256;-51
2023/06/07 10:09:29;;;;;;;6.03;4.88;;;;;;;-144.30;47.38;83693.19;5114246;27;20300;-57
2023/06/07 10:11:57;;;;;;;6.30;5.80;;;;;;;-144.30;48.17;83794.53;5131673;27;20198;-57
2023/06/07 10:14:30;;;;;;;5.70;5.15;;;;;;;-144.30;48.51;83762.72;5132235;27;20593;-50
2023/06/07 10:17:04;;;;;;;7.53;5.90;;;;;;;-144.30;48.06;83744.84;5132255;27;20190;-51
2023/06/07 10:19:37;;;;;;;7.30;4.97;;;;;;;-144.30;47.33;83732.94;5131028;27;20250;-51
2023/06/07 10:22:08;;;;;;;6.93;4.88;;;;;;;-144.30;47.33;83780.63;5131983;27;20204;-56
2023/06/07 10:24:43;;;;;;;5.00;4.53;;;;;;;-144.30;47.52;83790.56;5131806;27;20620;-57
2023/06/07 10:27:14;;;;;;;5.65;5.10;;;;;;;-144.30;46.82;83812.41;5128436;27;20213;-57
2023/06/07 10:29:52;;;;;;;5.97;5.00;;;;;;;-144.30;47.50;83866.06;5129062;27;20270;-57
2023/06/07 10:32:25;;;;;;;6.30;5.68;;;;;;;-144.30;48.40;83876.00;5128590;27;20659;-57
2023/06/07 10:34:55;;;;;;;6.18;5.57;;;;;;;-144.30;48.38;83858.09;5130574;27;20186;-56
2023/06/07 10:37:24;;;;;;;6.85;6.32;;;;;;;-144.30;48.50;83862.09;5131179;27;20190;-57
2023/06/07 10:39:51;;;;;;;7.13;5.45;;;;;;;-144.30;48.15;83848.19;5131015;27;20238;-52
2023/06/07 10:42:18;;;;;;;8.20;5.07;;;;;;;-144.30;48.50;83830.28;5128189;27;20190;-52
2023/06/07 10:44:47;;;;;;;6.82;5.43;;;;;;;-144.30;48.64;83862.09;5130789;27;20285;-52
2023/06/07 10:47:27;;;;;;;6.00;5.03;;;;;;;-144.30;48.81;83921.69;5130624;27;20244;-53
2023/06/07 10:49:54;;;;;;;10.77;4.70;;;;;;;-144.30;49.16;83947.53;5130803;27;20205;-56
2023/06/07 10:52:22;;;;;;;5.15;4.70;;;;;;;-144.30;49.05;83933.63;5131100;27;20254;-57
2023/06/07 10:54:49;;;;;;;5.28;4.78;;;;;;;-144.30;49.22;83897.84;5130860;27;20194;-52
2023/06/07 10:57:32;;;;;;;6.15;5.30;;;;;;;-144.30;49.10;83933.63;5127936;27;20186;-52
2023/06/07 11:00:29;;;;;;;5.82;4.95;;;;;;;-144.30;48.84;83933.63;5128170;27;20194;-52
2023/06/07 11:03:33;;;;;;;4.68;4.38;;;;;;;-144.30;49.10;83921.69;5130684;27;20277;-57
2023/06/07 11:06:05;;;;;;;5.93;4.97;;;;;;;-144.30;48.94;83945.53;5128372;27;20185;-57
2023/06/07 11:08:33;;;;;;;6.55;5.15;;;;;;;-144.30;49.42;83905.81;5130790;27;20217;-56
2023/06/07 11:11:02;;;;;;;5.38;4.75;;;;;;;-144.30;49.24;83830.28;5130502;27;20190;-56
2023/06/07 11:14:07;;;;;;;4.90;4.50;;;;;;;-144.30;48.64;83881.97;5130799;27;20217;-58
2023/06/07 11:16:38;;;;;;;5.10;4.60;;;;;;;-144.30;49.19;83877.97;5129839;27;20902;-56